Time;durP1;ratioP1;P1;durP2;ratioP2;P2;SDS_P1;SDS_P2;PMS_P1;PMS_P2;Temp;Humidity;BMP_temperature;BMP_pressure;BME280_temperature;BME280_humidity;BME280_pressure;Samples;Min_cycle;Max_cycle;Signal;HPM_P1;HPM_P2
2024/04/15 00:04:26;;;;;;;;;;;;;;;21.36;46.06;95398.97;11389909;25;3068;-73
2024/04/15 00:09:26;;;;;;;;;;;;;;;21.36;46.13;95395.53;11400570;25;3120;-72
2024/04/15 00:14:26;;;;;;;;;;;;;;;21.36;45.97;95392.91;11394051;25;2987;-73
2024/04/15 00:19:27;;;;;;;;;;;;;;;21.36;46.20;95387.63;11396746;25;2939;-73
2024/04/15 00:24:27;;;;;;;;;;;;;;;21.36;46.01;95382.34;11400056;25;3127;-73
2024/04/15 00:29:28;;;;;;;;;;;;;;;21.36;45.75;95375.25;11393387;25;3078;-73
2024/04/15 00:34:28;;;;;;;;;;;;;;;21.37;45.96;95370.75;11395850;25;2976;-72
2024/04/15 00:39:28;;;;;;;;;;;;;;;21.36;45.68;95363.91;11395277;25;2978;-71
2024/04/15 00:44:32;;;;;;;;;;;;;;;21.36;45.82;95366.53;11394364;25;3101;-72
2024/04/15 00:49:33;;;;;;;;;;;;;;;21.36;46.01;95345.44;11365659;25;3208;-72
2024/04/15 00:54:34;;;;;;;;;;;;;;;21.36;45.95;95345.44;11366279;25;3118;-72
2024/04/15 00:59:34;;;;;;;;;;;;;;;21.35;45.70;95336.75;11398994;25;3124;-73
2024/04/15 01:04:35;;;;;;;;;;;;;;;21.35;45.62;95328.06;11397192;25;2982;-72
2024/04/15 01:09:37;;;;;;;;;;;;;;;21.36;45.54;95316.44;11367179;25;2998;-72
2024/04/15 01:14:37;;;;;;;;;;;;;;;21.36;45.55;95298.00;11367643;25;2959;-72
2024/04/15 01:19:38;;;;;;;;;;;;;;;21.35;45.72;95289.28;11333822;25;3207;-72
2024/04/15 01:24:38;;;;;;;;;;;;;;;21.35;45.80;95280.63;11394534;25;2932;-72
2024/04/15 01:29:38;;;;;;;;;;;;;;;21.35;45.54;95286.66;11397993;25;3034;-72
2024/04/15 01:34:38;;;;;;;;;;;;;;;21.36;45.48;95287.44;11392870;25;3114;-74
2024/04/15 01:39:39;;;;;;;;;;;;;;;21.36;45.41;95279.53;11358676;25;3227;-74
2024/04/15 01:44:39;;;;;;;;;;;;;;;21.35;45.37;95275.34;11404927;25;2901;-74
2024/04/15 01:49:40;;;;;;;;;;;;;;;21.35;45.28;95272.72;11403202;25;2999;-73
2024/04/15 01:54:41;;;;;;;;;;;;;;;21.36;45.59;95263.72;11396799;25;3077;-74
2024/04/15 01:59:41;;;;;;;;;;;;;;;21.35;45.22;95259.53;11395313;25;3042;-73
2024/04/15 02:04:41;;;;;;;;;;;;;;;21.35;45.20;95256.91;11333747;25;3190;-73
2024/04/15 02:09:42;;;;;;;;;;;;;;;21.36;45.64;95250.53;11365067;25;3270;-73
2024/04/15 02:14:42;;;;;;;;;;;;;;;21.35;45.13;95238.44;11405461;25;3256;-74
2024/04/15 02:19:42;;;;;;;;;;;;;;;21.35;45.14;95238.44;11411491;25;3134;-73
2024/04/15 02:24:43;;;;;;;;;;;;;;;21.34;45.41;95231.59;11370333;25;2978;-73
2024/04/15 02:29:43;;;;;;;;;;;;;;;21.35;45.11;95227.91;11408078;25;3095;-74
2024/04/15 02:34:43;;;;;;;;;;;;;;;21.34;45.44;95215.78;11346695;25;3012;-73
2024/04/15 02:39:43;;;;;;;;;;;;;;;21.34;45.37;95207.88;11416225;25;2836;-73
2024/04/15 02:44:44;;;;;;;;;;;;;;;21.34;45.30;95199.94;11401680;25;3081;-73
2024/04/15 02:49:44;;;;;;;;;;;;;;;21.34;45.00;95205.22;11405038;25;2989;-73
2024/04/15 02:54:44;;;;;;;;;;;;;;;21.34;45.29;95208.66;11408590;25;3219;-73
2024/04/15 02:59:44;;;;;;;;;;;;;;;21.34;45.29;95210.50;11343108;25;3184;-73
2024/04/15 03:04:45;;;;;;;;;;;;;;;21.35;44.91;95217.34;11406706;25;2998;-73
2024/04/15 03:09:45;;;;;;;;;;;;;;;21.34;45.21;95228.94;11406725;25;3228;-73
2024/04/15 03:14:45;;;;;;;;;;;;;;;21.35;45.00;95227.91;11410485;25;2882;-73
2024/04/15 03:19:45;;;;;;;;;;;;;;;21.34;44.76;95234.22;11409815;25;2908;-73
2024/04/15 03:24:46;;;;;;;;;;;;;;;21.34;44.80;95236.84;11377510;25;2929;-73
2024/04/15 03:29:47;;;;;;;;;;;;;;;21.34;44.92;95236.84;11404666;25;3218;-73
2024/04/15 03:34:47;;;;;;;;;;;;;;;21.34;45.13;95231.59;11416253;25;3242;-73
2024/04/15 03:39:48;;;;;;;;;;;;;;;21.33;44.71;95241.34;11404675;25;2940;-73
2024/04/15 03:44:50;;;;;;;;;;;;;;;21.34;44.83;95240.28;11374248;25;3148;-73
2024/04/15 03:49:51;;;;;;;;;;;;;;;21.33;44.80;95251.13;11370421;25;3122;-72
2024/04/15 03:54:51;;;;;;;;;;;;;;;21.34;45.01;95263.22;11375198;25;3107;-72
2024/04/15 03:59:51;;;;;;;;;;;;;;;21.34;44.90;95260.59;11377061;25;2897;-72
2024/04/15 04:04:51;;;;;;;;;;;;;;;21.33;44.66;95236.06;11405481;25;3504;-73
2024/04/15 04:09:52;;;;;;;;;;;;;;;21.33;45.05;95251.13;11392992;25;2941;-72
2024/04/15 04:14:52;;;;;;;;;;;;;;;21.33;44.54;95267.72;11407347;25;2982;-72
2024/04/15 04:19:55;;;;;;;;;;;;;;;21.32;44.50;95266.16;11402767;25;3089;-72
2024/04/15 04:24:55;;;;;;;;;;;;;;;21.33;44.63;95266.94;11408391;25;2994;-72
2024/04/15 04:29:56;;;;;;;;;;;;;;;21.33;44.63;95262.44;11401336;25;3067;-72
2024/04/15 04:34:56;;;;;;;;;;;;;;;21.33;44.88;95267.72;11404300;25;3204;-72
2024/04/15 04:39:56;;;;;;;;;;;;;;;21.34;44.54;95263.22;11370380;25;3197;-72
2024/04/15 04:44:57;;;;;;;;;;;;;;;21.33;44.74;95257.16;11400804;25;3298;-72
2024/04/15 04:49:57;;;;;;;;;;;;;;;21.34;44.73;95257.94;11378745;25;3139;-72
2024/04/15 04:54:57;;;;;;;;;;;;;;;21.33;44.81;95235.31;11369464;25;3263;-72
2024/04/15 04:59:57;;;;;;;;;;;;;;;21.33;44.98;95251.13;11396500;25;2794;-72
2024/04/15 05:04:58;;;;;;;;;;;;;;;21.33;44.46;95291.44;11405873;25;2910;-66
2024/04/15 05:09:58;;;;;;;;;;;;;;;21.33;44.73;95266.94;11400963;25;3175;-72
2024/04/15 05:14:58;;;;;;;;;;;;;;;21.33;44.66;95225.53;11371345;25;3205;-72
2024/04/15 05:19:59;;;;;;;;;;;;;;;21.35;44.85;95257.66;11363836;25;2936;-71
2024/04/15 05:24:59;;;;;;;;;;;;;;;21.39;45.01;95276.34;11307534;25;2875;-62
2024/04/15 05:30:00;;;;;;;;;;;;;;;21.43;44.94;95272.03;11322428;25;3115;-63
2024/04/15 05:35:00;;;;;;;;;;;;;;;21.49;44.48;95284.06;11372158;25;2934;-62
2024/04/15 05:40:00;;;;;;;;;;;;;;;21.51;44.54;95279.28;11356092;25;2916;-65
2024/04/15 05:45:01;;;;;;;;;;;;;;;21.54;44.78;95297.94;11364788;25;3115;-64
2024/04/15 05:50:01;;;;;;;;;;;;;;;21.57;44.93;95259.66;11355504;25;3225;-65
2024/04/15 05:55:01;;;;;;;;;;;;;;;21.60;44.72;95288.06;11364295;25;2976;-64
2024/04/15 06:00:05;;;;;;;;;;;;;;;21.64;45.09;95316.22;11348478;25;3105;-65
2024/04/15 06:05:05;;;;;;;;;;;;;;;21.66;44.82;95292.19;11384796;25;2988;-65
2024/04/15 06:10:05;;;;;;;;;;;;;;;21.66;44.67;95271.09;11347094;25;3085;-64
2024/04/15 06:15:06;;;;;;;;;;;;;;;21.67;45.00;95257.63;11390767;25;3087;-65
2024/04/15 06:20:06;;;;;;;;;;;;;;;21.68;45.00;95274.22;11389648;25;2928;-65
2024/04/15 06:25:06;;;;;;;;;;;;;;;21.69;44.69;95275.78;11361063;25;2801;-64
2024/04/15 06:30:08;;;;;;;;;;;;;;;21.69;44.64;95255.47;11350202;25;3179;-65
2024/04/15 06:35:08;;;;;;;;;;;;;;;21.70;44.60;95272.84;11359914;25;3060;-65
2024/04/15 06:40:09;;;;;;;;;;;;;;;21.71;44.62;95294.75;11382213;25;2952;-64
2024/04/15 06:45:09;;;;;;;;;;;;;;;21.72;44.58;95293.69;11380314;25;3092;-64
2024/04/15 06:50:09;;;;;;;;;;;;;;;21.75;44.53;95304.44;11363964;25;3088;-64
2024/04/15 06:55:09;;;;;;;;;;;;;;;21.75;44.94;95287.81;11396044;25;2974;-64
2024/04/15 07:00:10;;;;;;;;;;;;;;;21.76;44.63;95276.19;11346514;25;3020;-64
2024/04/15 07:05:10;;;;;;;;;;;;;;;21.81;44.69;95273.47;11357171;25;2996;-64
2024/04/15 07:10:10;;;;;;;;;;;;;;;21.80;44.76;95264.75;11347519;25;3131;-64
2024/04/15 07:15:11;;;;;;;;;;;;;;;21.84;44.97;95257.09;11359927;25;3117;-66
2024/04/15 07:20:12;;;;;;;;;;;;;;;21.85;44.91;95261.28;11395594;25;3005;-64
2024/04/15 07:25:12;;;;;;;;;;;;;;;21.84;45.04;95241.25;11341013;25;3092;-64
2024/04/15 07:30:12;;;;;;;;;;;;;;;21.85;45.16;95226.97;11393325;25;3111;-64
2024/04/15 07:35:13;;;;;;;;;;;;;;;21.87;45.00;95243.28;11402278;25;3011;-61
2024/04/15 07:40:13;;;;;;;;;;;;;;;21.85;45.19;95242.81;11356134;25;3341;-62
2024/04/15 07:45:13;;;;;;;;;;;;;;;21.85;45.16;95240.94;11386628;25;3093;-62
2024/04/15 07:50:13;;;;;;;;;;;;;;;21.85;45.52;95245.44;11362914;25;3218;-62
2024/04/15 07:55:14;;;;;;;;;;;;;;;21.88;45.21;95258.06;11393026;25;2833;-62
2024/04/15 08:00:15;;;;;;;;;;;;;;;21.93;44.71;95246.63;11386252;25;3069;-63
2024/04/15 08:05:15;;;;;;;;;;;;;;;21.90;44.44;95241.94;11385199;25;3103;-62
2024/04/15 08:10:15;;;;;;;;;;;;;;;21.89;44.36;95264.88;11357164;25;3101;-62
2024/04/15 08:15:15;;;;;;;;;;;;;;;21.89;43.58;95249.06;11331868;25;3254;-63
2024/04/15 08:20:16;;;;;;;;;;;;;;;21.85;43.66;95235.69;11363809;25;3104;-63
2024/04/15 08:25:16;;;;;;;;;;;;;;;21.84;43.71;95241.25;11320583;25;2937;-62
2024/04/15 08:30:16;;;;;;;;;;;;;;;21.84;43.64;95244.66;11323123;25;2994;-63
2024/04/15 08:35:17;;;;;;;;;;;;;;;21.84;43.81;95249.94;11386677;25;3242;-63
2024/04/15 08:40:17;;;;;;;;;;;;;;;21.83;43.82;95243.09;11330306;25;3000;-62
2024/04/15 08:45:18;;;;;;;;;;;;;;;21.83;43.71;95255.50;11329906;25;3080;-63
2024/04/15 08:50:22;;;;;;;;;;;;;;;21.83;43.75;95247.59;11366189;25;3049;-63
2024/04/15 08:55:23;;;;;;;;;;;;;;;21.84;43.99;95246.53;11334976;26;3099;-63
2024/04/15 09:00:23;;;;;;;;;;;;;;;21.78;44.64;95253.72;11328200;25;3110;-63
2024/04/15 09:05:24;;;;;;;;;;;;;;;21.75;45.36;95230.56;11364460;25;2849;-63
2024/04/15 09:10:24;;;;;;;;;;;;;;;21.84;44.13;95241.25;11365024;25;3109;-62
2024/04/15 09:15:27;;;;;;;;;;;;;;;21.85;44.10;95237.53;11396178;25;3080;-62
2024/04/15 09:20:28;;;;;;;;;;;;;;;21.85;44.39;95250.72;11334963;25;3112;-62
2024/04/15 09:25:28;;;;;;;;;;;;;;;21.84;44.19;95234.09;11400137;25;3104;-62
2024/04/15 09:30:29;;;;;;;;;;;;;;;21.84;44.42;95235.97;11357199;25;2949;-62
2024/04/15 09:35:31;;;;;;;;;;;;;;;21.85;44.29;95235.69;11356418;25;3020;-62
2024/04/15 09:40:32;;;;;;;;;;;;;;;21.80;44.87;95233.09;11363557;25;3108;-64
2024/04/15 09:45:32;;;;;;;;;;;;;;;21.83;44.74;95244.94;11387153;25;3091;-63
2024/04/15 09:50:33;;;;;;;;;;;;;;;21.84;44.33;95233.34;11389423;25;2881;-64
2024/04/15 09:55:33;;;;;;;;;;;;;;;21.83;44.66;95250.22;11349598;25;3078;-64
2024/04/15 10:00:33;;;;;;;;;;;;;;;21.79;44.98;95220.19;11356274;25;3208;-63
2024/04/15 10:05:40;;;;;;;;;;;;;;;21.80;44.69;95237.59;11377538;25;3080;-64
2024/04/15 10:10:41;;;;;;;;;;;;;;;21.81;45.00;95249.72;11328793;25;3137;-63
2024/04/15 10:15:41;;;;;;;;;;;;;;;21.78;45.04;95266.13;11328219;25;3088;-63
2024/04/15 10:20:42;;;;;;;;;;;;;;;21.80;44.57;95254.19;11328268;25;3013;-65
2024/04/15 10:25:42;;;;;;;;;;;;;;;21.84;44.74;95252.56;11357843;25;2973;-66
2024/04/15 10:30:44;;;;;;;;;;;;;;;21.86;44.62;95254.94;11326612;25;3208;-65
2024/04/15 10:35:45;;;;;;;;;;;;;;;21.83;44.78;95248.38;11395197;25;3025;-65
2024/04/15 10:40:47;;;;;;;;;;;;;;;21.83;44.46;95252.88;11390849;25;3002;-66
2024/04/15 10:45:47;;;;;;;;;;;;;;;21.80;44.62;95241.00;11388542;25;3075;-66
2024/04/15 10:50:47;;;;;;;;;;;;;;;21.84;44.11;95230.69;11375469;25;3186;-66
2024/04/15 10:55:48;;;;;;;;;;;;;;;21.83;44.18;95223.84;11394995;25;3316;-66
2024/04/15 11:00:48;;;;;;;;;;;;;;;21.82;44.28;95207.22;11372309;25;2860;-66
2024/04/15 11:05:48;;;;;;;;;;;;;;;21.83;44.33;95221.19;11368191;25;3187;-65
2024/04/15 11:10:48;;;;;;;;;;;;;;;21.83;43.95;95192.19;11365401;25;2874;-66
2024/04/15 11:15:51;;;;;;;;;;;;;;;21.84;44.04;95180.56;11401023;25;3093;-66
2024/04/15 11:20:57;;;;;;;;;;;;;;;21.83;44.14;95160.53;11383404;25;3083;-65
2024/04/15 11:25:57;;;;;;;;;;;;;;;21.82;44.19;95143.16;11360445;25;3086;-64
2024/04/15 11:30:57;;;;;;;;;;;;;;;21.82;43.92;95136.00;11397778;25;2856;-66
2024/04/15 11:35:58;;;;;;;;;;;;;;;21.81;43.77;95141.53;11335635;25;3112;-66
2024/04/15 11:40:58;;;;;;;;;;;;;;;21.77;44.15;95122.88;11389711;25;3091;-65
2024/04/15 11:45:58;;;;;;;;;;;;;;;21.76;44.42;95118.69;11361454;25;3293;-66
2024/04/15 11:50:58;;;;;;;;;;;;;;;21.77;44.57;95104.41;11345523;25;3191;-67
2024/04/15 11:56:00;;;;;;;;;;;;;;;21.78;44.14;95098.06;11357994;25;2813;-66
2024/04/15 12:01:00;;;;;;;;;;;;;;;21.80;44.43;95097.78;11364421;25;3112;-65
2024/04/15 12:06:02;;;;;;;;;;;;;;;21.79;44.22;95101.47;11362757;25;3088;-65
2024/04/15 12:11:05;;;;;;;;;;;;;;;21.80;44.14;95098.53;11389566;25;3079;-66
2024/04/15 12:16:05;;;;;;;;;;;;;;;21.80;44.07;95093.25;11363113;25;2933;-65
2024/04/15 12:21:05;;;;;;;;;;;;;;;21.81;44.35;95088.78;11371443;25;3223;-65
2024/04/15 12:26:06;;;;;;;;;;;;;;;21.82;44.19;95050.81;11366476;25;3013;-66
2024/04/15 12:31:10;;;;;;;;;;;;;;;21.81;44.12;95039.47;11373243;25;2974;-65
2024/04/15 12:36:11;;;;;;;;;;;;;;;21.81;44.44;95007.00;11394016;25;3090;-62
2024/04/15 12:41:11;;;;;;;;;;;;;;;21.83;44.34;95018.06;11395611;25;2896;-66
2024/04/15 12:46:11;;;;;;;;;;;;;;;21.83;44.69;95010.94;11329460;25;3230;-66
2024/04/15 12:51:13;;;;;;;;;;;;;;;21.82;44.36;94995.41;11328971;25;3223;-65
2024/04/15 12:56:13;;;;;;;;;;;;;;;21.88;44.32;94988.94;11391704;25;3113;-65
2024/04/15 13:01:14;;;;;;;;;;;;;;;21.86;44.59;94977.91;11357370;25;3084;-66
2024/04/15 13:06:14;;;;;;;;;;;;;;;21.88;44.87;94945.94;11363076;25;3134;-67
2024/04/15 13:11:14;;;;;;;;;;;;;;;21.87;44.83;94931.94;11386406;25;3126;-66
2024/04/15 13:16:15;;;;;;;;;;;;;;;21.88;44.66;94921.09;11314683;25;3223;-66
2024/04/15 13:21:17;;;;;;;;;;;;;;;21.88;44.44;94905.25;11360361;25;3166;-66
2024/04/15 13:26:18;;;;;;;;;;;;;;;21.88;44.65;94899.22;11385817;25;3109;-66
2024/04/15 13:31:18;;;;;;;;;;;;;;;21.88;44.72;94893.94;11392639;25;3120;-66
2024/04/15 13:36:18;;;;;;;;;;;;;;;21.88;44.32;94857.75;11355210;25;3087;-66
2024/04/15 13:41:18;;;;;;;;;;;;;;;21.87;44.50;94852.78;11359131;25;3223;-67
2024/04/15 13:46:19;;;;;;;;;;;;;;;21.88;44.32;94835.13;11372731;25;3193;-66
2024/04/15 13:51:19;;;;;;;;;;;;;;;21.86;44.29;94812.44;11323752;25;3124;-67
2024/04/15 13:56:19;;;;;;;;;;;;;;;21.88;43.68;94791.81;11382775;25;2579;-65
2024/04/15 14:01:19;;;;;;;;;;;;;;;21.90;44.03;94788.88;11385512;25;2877;-65
2024/04/15 14:06:20;;;;;;;;;;;;;;;21.89;44.46;94747.72;11389733;25;2845;-66
2024/04/15 14:11:20;;;;;;;;;;;;;;;21.88;44.40;94746.19;11388676;25;2922;-66
2024/04/15 14:16:20;;;;;;;;;;;;;;;21.88;44.26;94740.91;11337489;25;3097;-64
2024/04/15 14:21:21;;;;;;;;;;;;;;;21.88;44.36;94736.41;11355743;25;3098;-65
2024/04/15 14:26:21;;;;;;;;;;;;;;;21.89;44.24;94737.19;11334689;25;3064;-65
2024/04/15 14:31:22;;;;;;;;;;;;;;;21.88;44.51;94731.13;11363433;25;3032;-66
2024/04/15 14:36:23;;;;;;;;;;;;;;;21.89;44.25;94716.06;11386418;25;3194;-64
2024/04/15 14:41:23;;;;;;;;;;;;;;;21.90;44.41;94701.03;11396345;25;2952;-65
2024/04/15 14:46:23;;;;;;;;;;;;;;;21.90;44.10;94712.38;11364745;25;3126;-65
2024/04/15 14:51:23;;;;;;;;;;;;;;;21.90;43.95;94698.38;11392988;25;3146;-65
2024/04/15 14:56:24;;;;;;;;;;;;;;;21.90;44.01;94656.97;11387771;25;3048;-65
2024/04/15 15:01:24;;;;;;;;;;;;;;;21.91;44.07;94640.03;11398664;25;3081;-65
2024/04/15 15:06:24;;;;;;;;;;;;;;;21.89;43.88;94629.00;11399663;25;2937;-65
2024/04/15 15:11:25;;;;;;;;;;;;;;;21.88;43.89;94628.22;11331000;25;3340;-65
2024/04/15 15:16:25;;;;;;;;;;;;;;;21.90;44.03;94633.22;11365853;25;3097;-65
2024/04/15 15:21:25;;;;;;;;;;;;;;;21.88;44.06;94603.72;11362926;25;2973;-65
2024/04/15 15:26:26;;;;;;;;;;;;;;;21.89;43.75;94594.72;11366773;25;3197;-65
2024/04/15 15:31:26;;;;;;;;;;;;;;;21.90;43.77;94584.94;11339414;25;3124;-68
2024/04/15 15:36:26;;;;;;;;;;;;;;;21.89;43.91;94594.72;11395138;25;3191;-66
2024/04/15 15:41:26;;;;;;;;;;;;;;;21.89;44.06;94589.44;11357417;25;3227;-66
2024/04/15 15:46:27;;;;;;;;;;;;;;;21.86;42.76;94548.63;11353695;25;3041;-66
2024/04/15 15:51:27;;;;;;;;;;;;;;;21.86;43.25;94539.94;11359024;25;3045;-67
2024/04/15 15:56:30;;;;;;;;;;;;;;;21.66;43.50;94522.81;11390602;25;3032;-67
2024/04/15 16:01:30;;;;;;;;;;;;;;;21.62;43.77;94534.28;11367620;25;3061;-67
2024/04/15 16:06:30;;;;;;;;;;;;;;;21.56;42.87;94514.44;11396245;25;3128;-66
2024/04/15 16:11:30;;;;;;;;;;;;;;;21.53;43.91;94517.69;11404320;25;2954;-65
2024/04/15 16:16:31;;;;;;;;;;;;;;;21.51;44.34;94512.75;11332012;25;3140;-65
2024/04/15 16:21:31;;;;;;;;;;;;;;;21.52;44.73;94505.59;11335324;25;3222;-65
2024/04/15 16:26:33;;;;;;;;;;;;;;;21.53;44.53;94504.53;11335115;25;3120;-66
2024/04/15 16:31:34;;;;;;;;;;;;;;;21.51;44.80;94510.09;11363410;25;2989;-65
2024/04/15 16:36:34;;;;;;;;;;;;;;;21.52;45.08;94506.38;11385179;25;3079;-65
2024/04/15 16:41:34;;;;;;;;;;;;;;;21.52;44.90;94510.88;11358201;25;2913;-65
2024/04/15 16:46:35;;;;;;;;;;;;;;;21.54;44.35;94506.84;11366907;25;2997;-65
2024/04/15 16:51:35;;;;;;;;;;;;;;;21.53;44.76;94491.34;11395814;25;3291;-66
2024/04/15 16:56:35;;;;;;;;;;;;;;;21.53;44.79;94486.06;11358390;25;3100;-65
2024/04/15 17:01:35;;;;;;;;;;;;;;;21.53;44.88;94478.16;11328273;25;3098;-66
2024/04/15 17:06:36;;;;;;;;;;;;;;;21.54;45.00;94464.66;11402489;25;2994;-66
2024/04/15 17:11:36;;;;;;;;;;;;;;;21.54;44.95;94471.78;11403506;25;3085;-66
2024/04/15 17:16:36;;;;;;;;;;;;;;;21.55;44.98;94475.97;11365839;25;2946;-67
2024/04/15 17:21:36;;;;;;;;;;;;;;;21.54;44.56;94474.41;11361055;25;3050;-66
2024/04/15 17:26:37;;;;;;;;;;;;;;;21.56;44.71;94478.31;11363754;25;3204;-65
2024/04/15 17:31:37;;;;;;;;;;;;;;;21.55;44.86;94481.25;11336139;25;3117;-65
2024/04/15 17:36:37;;;;;;;;;;;;;;;21.55;44.81;94479.41;11333461;25;3128;-65
2024/04/15 17:41:38;;;;;;;;;;;;;;;21.54;44.60;94458.59;11369577;25;3084;-65
2024/04/15 17:46:39;;;;;;;;;;;;;;;21.54;44.76;94455.97;11389800;25;3132;-65
2024/04/15 17:51:39;;;;;;;;;;;;;;;21.54;44.52;94461.22;11356744;25;3203;-65
2024/04/15 17:56:42;;;;;;;;;;;;;;;21.54;44.72;94462.00;11378624;25;3147;-65
2024/04/15 18:01:42;;;;;;;;;;;;;;;21.55;44.58;94470.72;11355413;25;3244;-65
2024/04/15 18:06:43;;;;;;;;;;;;;;;21.54;44.89;94466.50;11353960;25;3286;-66
2024/04/15 18:11:43;;;;;;;;;;;;;;;21.54;45.68;94463.88;11358337;25;3207;-66
2024/04/15 18:16:44;;;;;;;;;;;;;;;21.60;45.67;94466.03;11350630;25;3062;-67
2024/04/15 18:21:46;;;;;;;;;;;;;;;21.65;45.74;94470.41;11350575;25;3144;-65
2024/04/15 18:26:46;;;;;;;;;;;;;;;21.70;45.76;94467.63;11322939;25;3082;-65
2024/04/15 18:31:46;;;;;;;;;;;;;;;21.74;45.79;94468.53;11380962;25;3157;-65
2024/04/15 18:36:47;;;;;;;;;;;;;;;21.78;45.81;94482.66;11391949;25;3078;-64
2024/04/15 18:41:47;;;;;;;;;;;;;;;21.81;45.61;94497.84;11368842;25;2539;-62
2024/04/15 18:46:47;;;;;;;;;;;;;;;21.82;45.56;94504.72;11375671;25;2079;-62
2024/04/15 18:51:50;;;;;;;;;;;;;;;21.84;45.61;94518.38;11386715;25;1886;-61
2024/04/15 18:56:50;;;;;;;;;;;;;;;21.84;45.87;94523.66;11382711;25;1947;-62
2024/04/15 19:01:51;;;;;;;;;;;;;;;21.87;46.07;94520.38;11371314;25;2901;-63
2024/04/15 19:06:51;;;;;;;;;;;;;;;21.90;46.13;94527.69;11352812;25;3112;-60
2024/04/15 19:11:51;;;;;;;;;;;;;;;21.91;46.33;94508.13;11335899;25;3033;-64
2024/04/15 19:16:51;;;;;;;;;;;;;;;21.91;46.35;94516.03;11368409;25;3121;-63
2024/04/15 19:21:52;;;;;;;;;;;;;;;21.92;46.57;94528.16;11362235;25;3170;-63
2024/04/15 19:26:52;;;;;;;;;;;;;;;21.89;47.16;94536.66;11395378;25;3259;-63
2024/04/15 19:31:52;;;;;;;;;;;;;;;21.87;47.06;94530.94;11361452;25;3097;-63
2024/04/15 19:36:52;;;;;;;;;;;;;;;21.86;47.26;94542.59;11363065;25;3119;-63
2024/04/15 19:41:53;;;;;;;;;;;;;;;21.83;46.90;94543.19;11362115;25;3087;-62
2024/04/15 19:46:53;;;;;;;;;;;;;;;21.80;46.87;94544.56;11355041;25;3219;-63
2024/04/15 19:51:53;;;;;;;;;;;;;;;21.77;46.79;94539.13;11358850;25;3005;-63
2024/04/15 19:56:53;;;;;;;;;;;;;;;21.76;46.96;94534.94;11389690;25;2920;-63
2024/04/15 20:01:54;;;;;;;;;;;;;;;21.75;46.95;94543.94;11319456;25;3153;-62
2024/04/15 20:06:54;;;;;;;;;;;;;;;21.71;47.00;94540.38;11364442;25;3095;-62
2024/04/15 20:11:55;;;;;;;;;;;;;;;21.69;46.65;94532.78;11364978;25;2990;-62
2024/04/15 20:17:08;;;;;;;;;;;;;;;21.68;46.60;94540.97;11370827;25;3212;-62
2024/04/15 20:22:08;;;;;;;;;;;;;;;21.64;46.80;94546.09;11335515;25;3177;-62
2024/04/15 20:27:09;;;;;;;;;;;;;;;21.63;46.33;94549.03;11321063;25;3099;-62
2024/04/15 20:32:09;;;;;;;;;;;;;;;21.61;46.64;94557.28;11358558;25;3555;-63
2024/04/15 20:37:10;;;;;;;;;;;;;;;21.60;46.61;94554.91;11366531;25;3144;-62
2024/04/15 20:42:10;;;;;;;;;;;;;;;21.59;46.41;94553.38;11330902;25;2935;-63
2024/04/15 20:47:11;;;;;;;;;;;;;;;21.57;46.10;94551.06;11396443;25;2978;-63
2024/04/15 20:52:12;;;;;;;;;;;;;;;21.56;46.12;94583.00;11360626;25;3186;-62
2024/04/15 20:57:12;;;;;;;;;;;;;;;21.54;46.16;94585.94;11366915;25;3079;-63
2024/04/15 21:02:13;;;;;;;;;;;;;;;21.53;46.02;94587.03;11364721;25;3149;-63
2024/04/15 21:07:13;;;;;;;;;;;;;;;21.52;46.17;94589.97;11396194;25;3057;-62
2024/04/15 21:12:13;;;;;;;;;;;;;;;21.51;46.12;94580.50;11365086;25;2916;-63
2024/04/15 21:17:14;;;;;;;;;;;;;;;21.50;45.77;94578.94;11327177;25;3143;-62
2024/04/15 21:22:14;;;;;;;;;;;;;;;21.48;45.61;94558.16;11332508;25;3092;-63
2024/04/15 21:27:15;;;;;;;;;;;;;;;21.47;45.56;94569.81;11386204;25;3102;-62
2024/04/15 21:32:15;;;;;;;;;;;;;;;21.46;45.23;94564.81;11350072;25;3100;-62
2024/04/15 21:37:15;;;;;;;;;;;;;;;21.45;45.08;94579.84;11386222;25;3080;-63
2024/04/15 21:42:16;;;;;;;;;;;;;;;21.44;45.07;94577.53;11388245;25;3199;-63
2024/04/15 21:47:16;;;;;;;;;;;;;;;21.42;44.72;94608.72;11337595;25;2972;-63
2024/04/15 21:52:16;;;;;;;;;;;;;;;21.40;45.08;94592.41;11387635;25;2928;-63
2024/04/15 21:57:16;;;;;;;;;;;;;;;21.41;45.08;94716.00;11357353;25;3196;-63
2024/04/15 22:02:17;;;;;;;;;;;;;;;21.40;45.01;94746.09;11390269;25;3127;-63
2024/04/15 22:07:17;;;;;;;;;;;;;;;21.40;44.86;94737.41;11359271;25;2917;-63
2024/04/15 22:12:18;;;;;;;;;;;;;;;21.40;45.25;94776.94;11356900;25;3441;-63
2024/04/15 22:17:18;;;;;;;;;;;;;;;21.39;45.30;94812.31;11355291;25;2765;-63
2024/04/15 22:22:18;;;;;;;;;;;;;;;21.38;44.85;94789.66;11353756;25;3010;-63
2024/04/15 22:27:19;;;;;;;;;;;;;;;21.38;45.16;94779.91;11316494;25;3119;-64
2024/04/15 22:32:19;;;;;;;;;;;;;;;21.38;44.81;94784.38;11390585;25;3139;-63
2024/04/15 22:37:19;;;;;;;;;;;;;;;21.38;44.71;94805.47;11383813;25;3125;-63
2024/04/15 22:42:19;;;;;;;;;;;;;;;21.37;44.93;94825.03;11320817;26;3232;-63
2024/04/15 22:47:20;;;;;;;;;;;;;;;21.36;44.96;94849.81;11363043;25;2996;-62
2024/04/15 22:52:20;;;;;;;;;;;;;;;21.35;44.56;94848.28;11391306;25;3115;-62
2024/04/15 22:57:20;;;;;;;;;;;;;;;21.34;44.52;94841.44;11363496;25;3032;-62
2024/04/15 23:02:20;;;;;;;;;;;;;;;21.33;44.29;94842.53;11359882;25;3222;-62
2024/04/15 23:07:21;;;;;;;;;;;;;;;21.32;44.37;94883.13;11335333;25;2942;-62
2024/04/15 23:12:21;;;;;;;;;;;;;;;21.31;44.48;94879.69;11359197;25;3201;-62
2024/04/15 23:17:21;;;;;;;;;;;;;;;21.31;44.35;94857.84;11394673;25;3062;-62
2024/04/15 23:22:22;;;;;;;;;;;;;;;21.30;43.99;94891.34;11363596;25;3084;-61
2024/04/15 23:27:22;;;;;;;;;;;;;;;21.29;44.07;94918.00;11391976;25;3089;-63
2024/04/15 23:32:22;;;;;;;;;;;;;;;21.27;44.31;94909.63;11399962;25;2978;-62
2024/04/15 23:37:23;;;;;;;;;;;;;;;21.28;44.19;94917.22;11394748;25;3064;-63
2024/04/15 23:42:23;;;;;;;;;;;;;;;21.28;43.80;94927.75;11395649;25;2986;-62
2024/04/15 23:47:23;;;;;;;;;;;;;;;21.25;43.82;94920.44;11400810;25;3093;-63
2024/04/15 23:52:24;;;;;;;;;;;;;;;21.26;43.92;94922.00;11359048;25;2982;-61
2024/04/15 23:57:24;;;;;;;;;;;;;;;21.25;43.96;94912.53;11355315;25;3086;-62
